Time;durP1;ratioP1;P1;durP2;ratioP2;P2;SDS_P1;SDS_P2;PMS_P1;PMS_P2;Temp;Humidity;BMP_temperature;BMP_pressure;BME280_temperature;BME280_humidity;BME280_pressure;Samples;Min_cycle;Max_cycle;Signal;HPM_P1;HPM_P2
2023/01/09 00:02:00;;;;;;;0.10;0.10;;;;;;;5.34;100.00;99322.41;4995198;28;20029;-76
2023/01/09 00:04:25;;;;;;;0.10;0.10;;;;;;;5.39;100.00;99329.06;4996135;28;20068;-77
2023/01/09 00:06:54;;;;;;;0.10;0.10;;;;;;;5.31;100.00;99323.50;4994695;28;20045;-77
2023/01/09 00:09:21;;;;;;;0.10;0.10;;;;;;;5.58;100.00;99345.34;5011721;28;20029;-77
2023/01/09 00:11:47;;;;;;;0.10;0.10;;;;;;;5.59;100.00;99344.38;4990738;28;20421;-77
2023/01/09 00:14:13;;;;;;;0.10;0.10;;;;;;;5.47;100.00;99332.91;4979145;28;20030;-76
2023/01/09 00:16:38;;;;;;;0.10;0.10;;;;;;;5.34;100.00;99317.06;4996632;28;20034;-78
2023/01/09 00:19:03;;;;;;;0.10;0.10;;;;;;;5.19;100.00;99327.97;4981257;28;20097;-78
2023/01/09 00:21:29;;;;;;;0.10;0.10;;;;;;;5.19;100.00;99329.78;4982056;28;20137;-77
2023/01/09 00:23:54;;;;;;;0.10;0.10;;;;;;;5.20;100.00;99323.50;4998391;28;20359;-77
2023/01/09 00:26:20;;;;;;;0.10;0.10;;;;;;;5.20;100.00;99342.13;4998113;28;20029;-77
2023/01/09 00:28:47;;;;;;;0.10;0.10;;;;;;;5.10;100.00;99337.56;4997921;28;20017;-78
2023/01/09 00:31:13;;;;;;;0.10;0.10;;;;;;;5.30;100.00;99361.72;4984693;28;20403;-77
2023/01/09 00:33:51;;;;;;;0.10;0.10;;;;;;;5.21;100.00;99368.63;4998349;28;20647;-79
2023/01/09 00:36:17;;;;;;;0.10;0.10;;;;;;;5.08;100.00;99352.78;4995557;28;20034;-79
2023/01/09 00:38:42;;;;;;;0.10;0.10;;;;;;;5.13;100.00;99368.38;4981996;28;20072;-78
2023/01/09 00:41:11;;;;;;;0.10;0.10;;;;;;;4.84;100.00;99344.06;4984028;28;20061;-79
2023/01/09 00:43:41;;;;;;;0.10;0.10;;;;;;;4.78;100.00;99330.28;4981087;28;20058;-78
2023/01/09 00:46:07;;;;;;;0.10;0.10;;;;;;;4.80;100.00;99352.28;4977949;28;20029;-77
2023/01/09 00:48:34;;;;;;;0.10;0.10;;;;;;;4.82;100.00;99361.97;4984301;28;20026;-78
2023/01/09 00:50:59;;;;;;;0.10;0.10;;;;;;;4.59;100.00;99346.81;5001252;28;20034;-79
2023/01/09 00:53:28;;;;;;;0.10;0.10;;;;;;;4.84;100.00;99363.50;4981008;28;20712;-77
2023/01/09 00:55:54;;;;;;;0.10;0.10;;;;;;;4.60;100.00;99323.75;4998413;28;20025;-78
2023/01/09 00:58:19;;;;;;;0.10;0.10;;;;;;;4.58;100.00;99339.78;5000302;28;20421;-76
2023/01/09 01:00:45;;;;;;;0.10;0.10;;;;;;;4.68;100.00;99344.41;4999595;28;20040;-79
2023/01/09 01:03:10;;;;;;;0.10;0.10;;;;;;;4.44;100.00;99318.75;4992429;28;20038;-78
2023/01/09 01:08:20;;;;;;;0.10;0.10;;;;;;;4.44;100.00;99354.13;5000119;28;21128;-77
2023/01/09 01:10:46;;;;;;;0.10;0.10;;;;;;;4.64;100.00;99384.53;5000217;28;20380;-78
2023/01/09 01:13:12;;;;;;;0.10;0.10;;;;;;;4.60;100.00;99358.31;4996439;28;20401;-78
2023/01/09 01:15:39;;;;;;;0.10;0.10;;;;;;;4.71;100.00;99384.06;4974148;28;20574;-76
2023/01/09 01:18:04;;;;;;;0.10;0.10;;;;;;;4.16;100.00;99289.81;4998338;28;20038;-78
2023/01/09 01:20:30;;;;;;;0.10;0.10;;;;;;;4.29;100.00;99350.00;4977876;28;20060;-77
2023/01/09 01:22:55;;;;;;;0.10;0.10;;;;;;;4.60;100.00;99361.78;4999415;28;20456;-77
2023/01/09 01:25:20;;;;;;;0.10;0.10;;;;;;;4.52;100.00;99355.38;4997467;28;20566;-77
2023/01/09 01:27:46;;;;;;;0.20;0.20;;;;;;;4.16;100.00;99334.13;4993931;28;20026;-75
2023/01/09 01:30:13;;;;;;;0.10;0.10;;;;;;;4.21;100.00;99342.59;4993279;28;20566;-79
2023/01/09 01:32:39;;;;;;;0.10;0.10;;;;;;;4.32;100.00;99353.25;4993768;28;20149;-78
2023/01/09 01:35:05;;;;;;;0.10;0.10;;;;;;;4.59;100.00;99388.50;5002554;28;20026;-79
2023/01/09 01:37:30;;;;;;;0.10;0.10;;;;;;;4.44;100.00;99388.69;5009456;28;20038;-78
2023/01/09 01:39:56;;;;;;;0.10;0.10;;;;;;;4.17;100.00;99355.25;4996949;28;20133;-78
2023/01/09 01:42:21;;;;;;;0.10;0.10;;;;;;;4.53;100.00;99359.72;4990624;28;20157;-78
2023/01/09 01:45:01;;;;;;;0.10;0.10;;;;;;;4.65;100.00;99385.34;5003370;28;20026;-79
2023/01/09 01:47:39;;;;;;;0.10;0.10;;;;;;;4.33;100.00;99376.22;5000157;28;20783;-80
2023/01/09 01:50:11;;;;;;;0.10;0.10;;;;;;;4.39;100.00;99392.66;4998694;28;20030;-79
2023/01/09 01:52:36;;;;;;;0.10;0.10;;;;;;;4.48;100.00;99397.28;4998453;28;20476;-77
2023/01/09 01:55:04;;;;;;;0.10;0.10;;;;;;;4.48;100.00;99395.47;5000585;28;20030;-80
2023/01/09 01:57:31;;;;;;;0.10;0.10;;;;;;;4.18;100.00;99361.44;5001220;28;20033;-79
2023/01/09 01:59:57;;;;;;;0.10;0.10;;;;;;;4.20;100.00;99351.53;5003113;28;20049;-79
2023/01/09 02:02:27;;;;;;;0.13;0.13;;;;;;;4.37;100.00;99360.88;4996028;28;20380;-78
2023/01/09 02:04:54;;;;;;;0.10;0.10;;;;;;;4.27;100.00;99363.38;5000705;28;20052;-79
2023/01/09 02:07:19;;;;;;;0.10;0.10;;;;;;;4.08;100.00;99371.91;4983204;28;20034;-78
2023/01/09 02:09:45;;;;;;;0.10;0.10;;;;;;;4.25;100.00;99365.31;4998102;28;20053;-80
2023/01/09 02:12:28;;;;;;;0.10;0.10;;;;;;;4.32;100.00;99384.31;4975873;28;20477;-78
2023/01/09 02:15:01;;;;;;;0.10;0.10;;;;;;;4.27;100.00;99397.91;5000433;28;20021;-78
2023/01/09 02:17:32;;;;;;;0.10;0.10;;;;;;;3.79;100.00;99356.31;5015841;28;20038;-79
2023/01/09 02:20:28;;;;;;;0.10;0.10;;;;;;;4.31;100.00;99415.34;5000481;28;20037;-79
2023/01/09 02:23:25;;;;;;;0.10;0.10;;;;;;;4.17;100.00;99413.69;4996489;28;20045;-78
2023/01/09 02:26:16;;;;;;;0.20;0.20;;;;;;;3.99;100.00;99381.38;5000250;28;20443;-79
2023/01/09 02:29:11;;;;;;;0.10;0.10;;;;;;;4.07;100.00;99391.47;4989717;28;20492;-78
2023/01/09 02:32:11;;;;;;;0.10;0.10;;;;;;;3.71;100.00;99375.44;4990244;28;20116;-79
2023/01/09 02:35:13;;;;;;;0.10;0.10;;;;;;;4.12;100.00;99412.34;5002880;28;20058;-78
2023/01/09 02:38:01;;;;;;;0.10;0.10;;;;;;;4.07;100.00;99412.72;4996242;28;20041;-78
2023/01/09 02:40:32;;;;;;;0.10;0.10;;;;;;;3.83;100.00;99384.34;4979268;28;20044;-77
2023/01/09 02:42:59;;;;;;;0.10;0.10;;;;;;;3.70;100.00;99356.97;4993012;28;20030;-79
2023/01/09 02:45:24;;;;;;;0.20;0.20;;;;;;;4.16;100.00;99422.63;5000310;28;20112;-80
2023/01/09 02:47:50;;;;;;;0.10;0.10;;;;;;;4.02;100.00;99393.59;5001879;28;20430;-78
2023/01/09 02:50:20;;;;;;;0.17;0.17;;;;;;;3.93;100.00;99405.75;5002834;28;20065;-79
2023/01/09 02:53:01;;;;;;;0.10;0.10;;;;;;;3.86;100.00;99417.78;4987179;28;20033;-79
2023/01/09 02:55:41;;;;;;;0.20;0.20;;;;;;;3.89;100.00;99410.41;5005588;28;20328;-77
2023/01/09 02:58:46;;;;;;;0.15;0.15;;;;;;;3.97;100.00;99412.53;5010183;28;20113;-79
2023/01/09 03:01:26;;;;;;;0.10;0.10;;;;;;;3.78;100.00;99364.38;5005961;28;20065;-80
2023/01/09 03:04:01;;;;;;;0.20;0.20;;;;;;;3.96;100.00;99373.66;5017058;28;20060;-79
2023/01/09 03:06:32;;;;;;;0.10;0.10;;;;;;;4.14;100.00;99400.66;4997796;28;20037;-80
2023/01/09 03:09:05;;;;;;;0.10;0.10;;;;;;;4.03;100.00;99396.13;5002798;28;20022;-80
2023/01/09 03:11:35;;;;;;;0.10;0.10;;;;;;;4.01;100.00;99403.34;5002184;28;20495;-79
2023/01/09 03:14:05;;;;;;;0.20;0.20;;;;;;;3.93;100.00;99395.13;4994296;28;20434;-80
2023/01/09 03:16:34;;;;;;;0.20;0.20;;;;;;;3.75;100.00;99365.44;4990994;28;20501;-78
2023/01/09 03:19:00;;;;;;;0.10;0.10;;;;;;;3.71;100.00;99366.63;5003970;28;20022;-78
2023/01/09 03:21:26;;;;;;;0.10;0.10;;;;;;;3.46;100.00;99352.47;5000027;28;20041;-78
2023/01/09 03:23:57;;;;;;;0.10;0.10;;;;;;;3.71;100.00;99401.16;5008021;28;20022;-79
2023/01/09 03:26:23;;;;;;;0.20;0.20;;;;;;;3.80;100.00;99400.47;5021572;28;20185;-78
2023/01/09 03:28:49;;;;;;;0.20;0.20;;;;;;;3.42;100.00;99362.47;5001787;28;20021;-78
2023/01/09 03:31:14;;;;;;;0.10;0.10;;;;;;;3.73;100.00;99378.81;4986910;28;20125;-77
2023/01/09 03:33:39;;;;;;;0.15;0.15;;;;;;;3.87;100.00;99369.84;5003837;28;20038;-79
2023/01/09 03:36:05;;;;;;;0.10;0.10;;;;;;;3.84;100.00;99367.41;5002534;28;20068;-78
2023/01/09 03:38:30;;;;;;;0.10;0.10;;;;;;;3.84;100.00;99375.38;4989139;28;20029;-79
2023/01/09 03:40:56;;;;;;;0.10;0.10;;;;;;;3.67;100.00;99405.84;5004105;28;20029;-80
2023/01/09 03:43:21;;;;;;;0.20;0.20;;;;;;;3.54;100.00;99363.41;5008949;28;20038;-79
2023/01/09 03:45:46;;;;;;;0.20;0.20;;;;;;;3.46;100.00;99381.69;5007201;28;20417;-76
2023/01/09 03:48:12;;;;;;;0.10;0.10;;;;;;;3.56;100.00;99385.38;4993663;28;20612;-80
2023/01/09 03:50:37;;;;;;;0.10;0.10;;;;;;;3.54;100.00;99392.59;4989672;28;20544;-79
2023/01/09 03:53:02;;;;;;;0.20;0.20;;;;;;;3.65;100.00;99375.03;5012508;28;20480;-80
2023/01/09 03:55:28;;;;;;;0.10;0.10;;;;;;;3.54;100.00;99381.13;4992474;28;20354;-80
2023/01/09 03:57:53;;;;;;;0.10;0.10;;;;;;;3.61;100.00;99377.06;5006795;28;20037;-79
2023/01/09 04:00:19;;;;;;;0.13;0.13;;;;;;;3.36;100.00;99370.88;4987683;28;20034;-78
2023/01/09 04:02:44;;;;;;;0.20;0.20;;;;;;;3.51;100.00;99373.38;4979565;28;20022;-82
2023/01/09 04:05:10;;;;;;;0.10;0.10;;;;;;;3.77;100.00;99381.25;4998996;28;20041;-79
2023/01/09 04:07:35;;;;;;;0.20;0.20;;;;;;;3.82;100.00;99403.88;4988603;28;20084;-79
2023/01/09 04:10:00;;;;;;;0.10;0.10;;;;;;;3.34;100.00;99361.31;4986664;28;20038;-77
2023/01/09 04:12:26;;;;;;;0.20;0.20;;;;;;;3.66;100.00;99388.22;5004249;28;20029;-79
2023/01/09 04:14:51;;;;;;;0.20;0.20;;;;;;;4.02;100.00;99405.06;5003636;28;20108;-79
2023/01/09 04:17:16;;;;;;;0.20;0.20;;;;;;;3.59;100.00;99371.03;5002066;28;20034;-77
2023/01/09 04:19:42;;;;;;;0.15;0.15;;;;;;;3.84;100.00;99380.69;4986473;28;20025;-78
2023/01/09 04:22:07;;;;;;;0.10;0.10;;;;;;;3.75;100.00;99398.16;5003679;28;20077;-78
2023/01/09 04:24:32;;;;;;;0.20;0.20;;;;;;;3.66;100.00;99366.13;4986656;28;20091;-80
2023/01/09 04:26:58;;;;;;;0.20;0.20;;;;;;;4.14;100.00;99395.31;4984877;28;20543;-78
2023/01/09 04:29:23;;;;;;;0.20;0.20;;;;;;;4.01;100.00;99387.41;5001316;28;20187;-80
2023/01/09 04:31:48;;;;;;;0.10;0.10;;;;;;;3.79;100.00;99387.31;5003110;28;20123;-80
2023/01/09 04:34:14;;;;;;;0.20;0.20;;;;;;;3.82;100.00;99432.22;5000053;28;20083;-79
2023/01/09 04:36:40;;;;;;;0.20;0.20;;;;;;;3.82;100.00;99393.25;5005372;28;20176;-82
2023/01/09 04:39:05;;;;;;;0.10;0.10;;;;;;;3.74;100.00;99411.53;5002399;28;20399;-80
2023/01/09 04:41:48;;;;;;;0.13;0.13;;;;;;;3.86;100.00;99407.97;5002175;28;20057;-80
2023/01/09 04:44:19;;;;;;;0.20;0.20;;;;;;;4.02;100.00;99418.34;5001182;28;20045;-80
2023/01/09 04:46:44;;;;;;;0.20;0.20;;;;;;;4.11;100.00;99419.47;4982603;28;20033;-82
2023/01/09 04:49:10;;;;;;;0.10;0.10;;;;;;;4.17;100.00;99410.22;4999629;28;20618;-79
2023/01/09 04:51:35;;;;;;;0.17;0.17;;;;;;;4.26;100.00;99409.50;4979237;28;20056;-78
2023/01/09 04:54:00;;;;;;;0.20;0.20;;;;;;;4.33;100.00;99386.00;4996961;28;20102;-78
2023/01/09 04:56:26;;;;;;;0.20;0.20;;;;;;;4.61;100.00;99429.94;4978318;28;20025;-79
2023/01/09 04:58:51;;;;;;;0.10;0.10;;;;;;;4.41;100.00;99404.03;4982380;28;20034;-76
2023/01/09 05:01:17;;;;;;;0.10;0.10;;;;;;;4.28;100.00;99404.94;5000855;28;20034;-76
2023/01/09 05:03:42;;;;;;;0.13;0.13;;;;;;;4.56;100.00;99383.41;4981559;28;20033;-77
2023/01/09 05:06:07;;;;;;;0.10;0.10;;;;;;;4.48;100.00;99407.94;4998389;28;20065;-81
2023/01/09 05:08:32;;;;;;;0.10;0.10;;;;;;;4.60;100.00;99414.13;5003209;28;20033;-81
2023/01/09 05:10:59;;;;;;;0.10;0.10;;;;;;;4.46;100.00;99401.88;5005570;28;20213;-75
2023/01/09 05:13:24;;;;;;;0.20;0.20;;;;;;;4.53;100.00;99405.75;4996621;28;20085;-79
2023/01/09 05:15:49;;;;;;;0.10;0.10;;;;;;;4.78;100.00;99388.78;4979907;28;20442;-77
2023/01/09 05:18:15;;;;;;;0.10;0.10;;;;;;;4.82;100.00;99402.69;4982689;28;20037;-77
2023/01/09 05:20:40;;;;;;;0.10;0.10;;;;;;;4.92;100.00;99402.81;4978661;28;20435;-81
2023/01/09 05:23:05;;;;;;;0.20;0.20;;;;;;;4.94;100.00;99398.22;4980977;28;20451;-78
2023/01/09 05:25:31;;;;;;;0.20;0.20;;;;;;;4.73;100.00;99355.53;4981906;28;20026;-79
2023/01/09 05:27:56;;;;;;;0.10;0.10;;;;;;;5.11;100.00;99402.22;4984495;28;21701;-80
2023/01/09 05:30:21;;;;;;;0.15;0.15;;;;;;;5.02;100.00;99384.34;4994651;28;20034;-81
2023/01/09 05:32:47;;;;;;;0.20;0.20;;;;;;;4.92;100.00;99368.22;4983456;28;20038;-78
2023/01/09 05:35:12;;;;;;;0.10;0.10;;;;;;;5.05;100.00;99419.53;5002624;28;20049;-75
2023/01/09 05:37:38;;;;;;;0.10;0.10;;;;;;;4.92;100.00;99390.38;4995485;28;20026;-77
2023/01/09 05:40:04;;;;;;;0.10;0.10;;;;;;;4.96;100.00;99383.00;5001533;28;20115;-77
2023/01/09 05:42:30;;;;;;;0.10;0.10;;;;;;;4.91;100.00;99396.66;4981826;28;20120;-75
2023/01/09 05:44:55;;;;;;;0.10;0.10;;;;;;;5.18;100.00;99397.28;5013219;28;20044;-79
2023/01/09 05:47:20;;;;;;;0.20;0.20;;;;;;;5.16;100.00;99389.41;4995492;28;20140;-76
2023/01/09 05:49:46;;;;;;;0.20;0.20;;;;;;;5.12;100.00;99365.84;4998774;28;20034;-77
2023/01/09 05:52:11;;;;;;;0.20;0.20;;;;;;;5.06;100.00;99365.34;4979275;28;20032;-81
2023/01/09 05:54:36;;;;;;;0.20;0.20;;;;;;;5.31;100.00;99405.13;5000972;28;20022;-78
2023/01/09 05:57:02;;;;;;;0.10;0.10;;;;;;;5.23;100.00;99360.50;4983097;28;20033;-77
2023/01/09 05:59:27;;;;;;;0.17;0.17;;;;;;;5.06;100.00;99380.47;4989736;28;20425;-75
2023/01/09 06:01:53;;;;;;;0.10;0.10;;;;;;;5.49;100.00;99411.69;4994943;28;20034;-77
2023/01/09 06:04:18;;;;;;;0.10;0.10;;;;;;;5.40;100.00;99399.09;4986767;28;20029;-78
2023/01/09 06:06:44;;;;;;;0.20;0.20;;;;;;;5.21;100.00;99378.41;4982151;28;20026;-76
2023/01/09 06:09:09;;;;;;;0.10;0.10;;;;;;;5.09;100.00;99378.44;4982543;28;20856;-77
2023/01/09 06:11:37;;;;;;;0.10;0.10;;;;;;;5.59;100.00;99392.28;4995707;28;20034;-77
2023/01/09 06:14:02;;;;;;;0.10;0.10;;;;;;;5.52;100.00;99371.50;4980836;28;20030;-75
2023/01/09 06:16:27;;;;;;;0.10;0.10;;;;;;;5.60;100.00;99394.84;4996452;28;20034;-74
2023/01/09 06:18:53;;;;;;;0.10;0.10;;;;;;;5.67;100.00;99348.13;4980831;28;20033;-77
2023/01/09 06:21:18;;;;;;;0.10;0.10;;;;;;;5.61;100.00;99372.59;4991906;28;20527;-78
2023/01/09 06:23:44;;;;;;;0.17;0.17;;;;;;;5.74;100.00;99361.78;4991165;28;20388;-77
2023/01/09 06:26:09;;;;;;;0.20;0.20;;;;;;;5.82;100.00;99369.16;5000051;28;20068;-76
2023/01/09 06:28:34;;;;;;;0.10;0.10;;;;;;;5.52;100.00;99398.13;4975563;28;20081;-77
2023/01/09 06:30:59;;;;;;;0.10;0.10;;;;;;;5.51;100.00;99367.16;4973552;28;20026;-76
2023/01/09 06:33:25;;;;;;;0.20;0.20;;;;;;;5.35;100.00;99351.56;4970235;28;20053;-77
2023/01/09 06:35:50;;;;;;;0.10;0.10;;;;;;;5.17;100.00;99310.44;4961814;28;20121;-80
2023/01/09 06:38:15;;;;;;;0.13;0.13;;;;;;;5.61;100.00;99377.91;4982349;28;20049;-78
2023/01/09 06:40:41;;;;;;;0.10;0.10;;;;;;;5.22;100.00;99348.16;4986665;28;20038;-75
2023/01/09 06:43:06;;;;;;;0.20;0.20;;;;;;;5.19;100.00;99361.72;4963949;28;20221;-75
2023/01/09 06:45:31;;;;;;;0.10;0.10;;;;;;;5.43;100.00;99404.19;4986232;28;20068;-77
2023/01/09 06:47:57;;;;;;;0.20;0.20;;;;;;;5.47;100.00;99397.66;4988543;28;20177;-75
2023/01/09 06:50:22;;;;;;;0.10;0.10;;;;;;;5.24;100.00;99384.34;4966339;28;20542;-77
2023/01/09 06:52:47;;;;;;;0.10;0.10;;;;;;;5.50;100.00;99401.88;4964806;28;20510;-79
2023/01/09 06:55:13;;;;;;;0.10;0.10;;;;;;;5.51;100.00;99382.25;4975282;28;20121;-74
2023/01/09 06:57:39;;;;;;;0.20;0.20;;;;;;;5.64;100.00;99371.47;4968609;28;20034;-81
2023/01/09 07:00:04;;;;;;;0.10;0.10;;;;;;;5.59;100.00;99373.66;4962330;28;20429;-77
2023/01/09 07:02:30;;;;;;;0.10;0.10;;;;;;;5.60;100.00;99351.38;4968682;28;20484;-76
2023/01/09 07:04:55;;;;;;;0.10;0.10;;;;;;;5.52;100.00;99366.19;4973980;28;20702;-78
2023/01/09 07:07:21;;;;;;;0.10;0.10;;;;;;;5.60;100.00;99356.72;4986093;28;20041;-75
2023/01/09 07:09:46;;;;;;;0.13;0.13;;;;;;;5.74;100.00;99328.97;4961791;28;20025;-79
2023/01/09 07:12:13;;;;;;;0.10;0.10;;;;;;;5.69;100.00;99334.69;4978383;28;20030;-80
2023/01/09 07:14:39;;;;;;;0.10;0.10;;;;;;;5.61;100.00;99351.28;4978209;28;20612;-78
2023/01/09 07:17:04;;;;;;;0.10;0.10;;;;;;;5.69;100.00;99353.31;4980312;28;20442;-79
2023/01/09 07:19:29;;;;;;;0.10;0.10;;;;;;;5.78;100.00;99387.19;4979548;28;20153;-74
2023/01/09 07:21:55;;;;;;;0.17;0.17;;;;;;;5.64;100.00;99387.44;4978349;28;20041;-75
2023/01/09 07:24:20;;;;;;;0.20;0.20;;;;;;;5.74;100.00;99384.88;4978615;28;20153;-75
2023/01/09 07:26:45;;;;;;;0.10;0.10;;;;;;;5.75;100.00;99378.59;4964024;28;20420;-74
2023/01/09 07:29:11;;;;;;;0.10;0.10;;;;;;;5.83;100.00;99389.47;4964034;28;20068;-74
2023/01/09 07:31:37;;;;;;;0.10;0.10;;;;;;;5.53;100.00;99383.84;4978432;28;20046;-74
2023/01/09 07:34:02;;;;;;;0.20;0.20;;;;;;;5.41;100.00;99398.13;4977264;28;20347;-77
2023/01/09 07:36:28;;;;;;;0.10;0.10;;;;;;;5.38;100.00;99391.25;4981620;28;20030;-75
2023/01/09 07:38:53;;;;;;;0.13;0.13;;;;;;;5.26;100.00;99376.22;4978122;28;20045;-76
2023/01/09 07:41:18;;;;;;;0.20;0.20;;;;;;;5.53;100.00;99407.81;4979352;28;20042;-75
2023/01/09 07:43:44;;;;;;;0.20;0.20;;;;;;;5.44;100.00;99386.38;4961489;28;20100;-76
2023/01/09 07:46:09;;;;;;;0.10;0.10;;;;;;;5.48;100.00;99415.31;4980795;28;20033;-75
2023/01/09 07:48:34;;;;;;;0.20;0.20;;;;;;;5.16;100.00;99389.41;4965451;28;20060;-75
2023/01/09 07:50:59;;;;;;;0.15;0.15;;;;;;;5.46;100.00;99403.06;4964022;28;20459;-75
2023/01/09 07:53:25;;;;;;;0.20;0.20;;;;;;;5.51;100.00;99436.38;4982741;28;21781;-74
2023/01/09 07:55:50;;;;;;;0.10;0.10;;;;;;;5.48;100.00;99423.31;4969018;28;20045;-75
2023/01/09 07:58:15;;;;;;;0.17;0.17;;;;;;;5.47;100.00;99429.59;4977607;28;20041;-75
2023/01/09 08:00:41;;;;;;;0.20;0.20;;;;;;;5.64;100.00;99432.72;4987769;28;20120;-77
2023/01/09 08:03:06;;;;;;;0.10;0.10;;;;;;;5.54;100.00;99421.97;4980091;28;21647;-75
2023/01/09 08:05:32;;;;;;;0.10;0.10;;;;;;;5.55;100.00;99427.19;4981774;28;20068;-76
2023/01/09 08:07:57;;;;;;;0.10;0.10;;;;;;;5.54;100.00;99438.78;4996672;28;20057;-75
2023/01/09 08:10:22;;;;;;;0.10;0.10;;;;;;;5.60;100.00;99447.25;4994561;28;20072;-77
2023/01/09 08:12:48;;;;;;;0.20;0.20;;;;;;;5.56;100.00;99415.53;4997236;28;20053;-76
2023/01/09 08:15:14;;;;;;;0.10;0.10;;;;;;;5.69;100.00;99451.84;4991500;28;20124;-77
2023/01/09 08:17:41;;;;;;;0.13;0.13;;;;;;;5.62;100.00;99466.63;5000462;28;20061;-75
2023/01/09 08:20:09;;;;;;;0.10;0.10;;;;;;;5.44;100.00;99445.81;5002554;28;20030;-75
2023/01/09 08:22:35;;;;;;;0.10;0.10;;;;;;;5.36;100.00;99441.09;5005212;28;20480;-75
2023/01/09 08:25:00;;;;;;;0.20;0.20;;;;;;;5.53;100.00;99477.03;5007395;28;20092;-75
2023/01/09 08:27:25;;;;;;;0.10;0.10;;;;;;;5.69;100.00;99494.47;4999334;28;20085;-73
2023/01/09 08:29:50;;;;;;;0.10;0.10;;;;;;;5.76;100.00;99485.03;4994415;28;20053;-75
2023/01/09 08:32:16;;;;;;;0.10;0.10;;;;;;;5.53;100.00;99455.75;4994666;28;20111;-78
2023/01/09 08:34:41;;;;;;;0.10;0.10;;;;;;;5.64;100.00;99483.31;5005152;28;20051;-77
2023/01/09 08:37:06;;;;;;;0.17;0.17;;;;;;;5.83;100.00;99493.38;4999889;28;20029;-74
2023/01/09 08:39:32;;;;;;;0.20;0.20;;;;;;;5.68;100.00;99487.44;5001290;28;20030;-78
2023/01/09 08:47:26;;;;;;;0.10;0.10;;;;;;;5.60;100.00;99488.03;5000124;28;20530;-77
2023/01/09 08:49:51;;;;;;;0.10;0.10;;;;;;;5.75;100.00;99514.41;5001176;28;20034;-78
2023/01/09 08:52:16;;;;;;;0.10;0.10;;;;;;;5.74;100.00;99520.72;4985350;28;20063;-79
2023/01/09 08:54:42;;;;;;;0.10;0.10;;;;;;;5.70;100.00;99526.28;4999112;28;20109;-75
2023/01/09 08:57:07;;;;;;;0.10;0.10;;;;;;;5.58;100.00;99507.75;4996645;28;20038;-75
2023/01/09 08:59:33;;;;;;;0.10;0.10;;;;;;;5.63;100.00;99516.25;5003789;28;20080;-77
2023/01/09 09:01:59;;;;;;;0.10;0.10;;;;;;;5.50;100.00;99522.53;4996097;28;20029;-75
2023/01/09 09:04:24;;;;;;;0.10;0.10;;;;;;;5.65;100.00;99530.28;5002245;28;20113;-74
2023/01/09 09:06:50;;;;;;;0.10;0.10;;;;;;;5.76;100.00;99561.41;5005115;28;20029;-77
2023/01/09 09:09:15;;;;;;;0.10;0.10;;;;;;;5.64;100.00;99547.22;5006601;28;20041;-76
2023/01/09 09:11:40;;;;;;;0.13;0.13;;;;;;;5.78;100.00;99567.44;5000527;28;20037;-77
2023/01/09 09:16:50;;;;;;;0.10;0.10;;;;;;;5.68;100.00;99577.97;5000252;28;20593;-76
2023/01/09 09:19:15;;;;;;;0.10;0.10;;;;;;;5.54;100.00;99563.06;4986308;28;20042;-78
2023/01/09 09:21:40;;;;;;;0.10;0.10;;;;;;;5.71;100.00;99575.91;4998705;28;20029;-75
2023/01/09 09:24:06;;;;;;;0.10;0.10;;;;;;;5.45;100.00;99551.31;4985731;28;20488;-75
2023/01/09 09:26:31;;;;;;;0.10;0.10;;;;;;;5.63;100.00;99566.84;5003150;28;20048;-76
2023/01/09 09:28:57;;;;;;;0.10;0.10;;;;;;;5.63;100.00;99556.19;5004467;28;20533;-77
2023/01/09 09:31:23;;;;;;;0.10;0.10;;;;;;;5.51;100.00;99550.00;4998736;28;20064;-78
2023/01/09 09:33:48;;;;;;;0.10;0.10;;;;;;;5.71;100.00;99583.91;5002121;28;20400;-76
2023/01/09 09:36:13;;;;;;;0.10;0.10;;;;;;;5.50;100.00;99567.78;4998146;28;20520;-76
2023/01/09 09:38:39;;;;;;;0.10;0.10;;;;;;;5.74;100.00;99601.47;4998283;28;20100;-76
2023/01/09 09:47:29;;;;;;;0.17;0.17;;;;;;;5.85;100.00;99624.63;4999917;28;20045;-75
2023/01/09 09:50:05;;;;;;;0.10;0.10;;;;;;;5.77;100.00;99635.88;5005690;28;20029;-74
2023/01/09 09:52:50;;;;;;;0.10;0.10;;;;;;;5.78;100.00;99639.38;5000444;28;20037;-76
2023/01/09 09:55:19;;;;;;;0.20;0.20;;;;;;;5.82;100.00;99648.81;4998427;28;20065;-77
2023/01/09 09:57:45;;;;;;;0.10;0.10;;;;;;;5.70;100.00;99629.31;4977145;28;20124;-75
2023/01/09 10:00:16;;;;;;;0.10;0.10;;;;;;;5.71;100.00;99657.66;5001368;28;20136;-76
2023/01/09 10:02:49;;;;;;;0.17;0.17;;;;;;;5.76;100.00;99667.94;4999949;28;20120;-77
2023/01/09 10:05:19;;;;;;;0.10;0.10;;;;;;;5.70;100.00;99645.28;5005145;28;20088;-75
2023/01/09 10:07:48;;;;;;;0.10;0.10;;;;;;;5.88;100.00;99672.34;4984521;28;20398;-74
2023/01/09 10:10:35;;;;;;;0.10;0.10;;;;;;;5.97;100.00;99652.94;5002430;28;20046;-74
2023/01/09 10:14:03;;;;;;;0.15;0.15;;;;;;;6.37;100.00;99686.34;5004841;28;20043;-75
2023/01/09 10:16:04;;;;;;;0.10;0.10;;;;;;;6.34;100.00;99683.06;4993057;28;20034;-75
2023/01/09 10:18:47;;;;;;;0.10;0.10;;;;;;;6.31;100.00;99684.19;4995987;28;20327;-76
2023/01/09 10:21:31;;;;;;;0.20;0.20;;;;;;;6.12;100.00;99685.59;4998507;28;20034;-75
2023/01/09 10:23:58;;;;;;;0.10;0.10;;;;;;;6.35;100.00;99696.28;4996962;28;20480;-73
2023/01/09 10:26:47;;;;;;;0.10;0.10;;;;;;;6.26;100.00;99692.50;4999727;28;20060;-75
2023/01/09 10:29:47;;;;;;;0.15;0.15;;;;;;;6.18;100.00;99708.28;4997633;28;20033;-76
2023/01/09 10:32:26;;;;;;;0.10;0.10;;;;;;;6.21;100.00;99709.84;5000466;28;20072;-76
2023/01/09 10:35:10;;;;;;;0.10;0.10;;;;;;;6.11;100.00;99709.72;4986968;28;20034;-77
2023/01/09 10:37:42;;;;;;;0.10;0.10;;;;;;;6.03;100.00;99689.00;4999438;28;20030;-79
2023/01/09 10:40:25;;;;;;;0.10;0.10;;;;;;;6.21;100.00;99701.84;4996122;28;20559;-82
2023/01/09 10:43:04;;;;;;;0.10;0.10;;;;;;;6.26;100.00;99694.34;4999332;28;20392;-79
2023/01/09 10:45:51;;;;;;;0.10;0.10;;;;;;;6.40;100.00;99706.59;5000455;28;20044;-75
2023/01/09 10:48:23;;;;;;;0.10;0.10;;;;;;;6.42;100.00;99726.81;5001923;28;20030;-81
2023/01/09 10:50:50;;;;;;;0.20;0.20;;;;;;;6.42;100.00;99715.31;4995840;28;20498;-77
2023/01/09 10:53:20;;;;;;;0.20;0.20;;;;;;;6.81;100.00;99729.13;4982587;28;20054;-75
2023/01/09 10:55:46;;;;;;;0.10;0.10;;;;;;;7.11;100.00;99732.13;4986868;28;20021;-74
2023/01/09 10:58:14;;;;;;;0.10;0.10;;;;;;;6.96;100.00;99727.03;5001764;28;20499;-76
2023/01/09 11:00:40;;;;;;;0.10;0.10;;;;;;;7.11;100.00;99738.31;4998358;28;20498;-77
2023/01/09 11:03:10;;;;;;;0.10;0.10;;;;;;;7.30;100.00;99742.13;4997236;28;20026;-76
2023/01/09 11:05:35;;;;;;;0.10;0.10;;;;;;;7.13;100.00;99720.34;4997418;28;20520;-76
2023/01/09 11:08:12;;;;;;;0.10;0.10;;;;;;;7.11;100.00;99738.31;5002378;28;20022;-76
2023/01/09 11:10:46;;;;;;;0.10;0.10;;;;;;;6.97;100.00;99727.91;5002736;28;20045;-77
2023/01/09 11:13:16;;;;;;;0.10;0.10;;;;;;;7.00;100.00;99741.00;5003005;28;20061;-79
2023/01/09 11:15:42;;;;;;;0.10;0.10;;;;;;;6.89;100.00;99750.72;5006086;28;20068;-77
2023/01/09 11:18:25;;;;;;;0.20;0.20;;;;;;;6.86;100.00;99758.13;5010154;28;20034;-77
2023/01/09 11:20:51;;;;;;;0.15;0.15;;;;;;;6.95;100.00;99760.03;5006278;28;20030;-75
2023/01/09 11:23:23;;;;;;;0.10;0.10;;;;;;;6.82;100.00;99754.84;5006465;28;20068;-72
2023/01/09 11:25:53;;;;;;;0.10;0.10;;;;;;;6.77;100.00;99751.69;5008809;28;20057;-79
2023/01/09 11:28:19;;;;;;;0.10;0.10;;;;;;;6.66;100.00;99751.69;4992025;28;20026;-77
2023/01/09 11:31:01;;;;;;;0.10;0.10;;;;;;;6.60;100.00;99735.19;4987420;28;20428;-76
2023/01/09 11:33:29;;;;;;;0.10;0.10;;;;;;;6.64;100.00;99743.78;4990723;28;20025;-77
2023/01/09 11:36:14;;;;;;;0.10;0.10;;;;;;;6.56;100.00;99759.56;4989091;28;20076;-79
2023/01/09 11:38:51;;;;;;;0.10;0.10;;;;;;;6.55;100.00;99745.38;4987676;28;20053;-77
2023/01/09 11:41:20;;;;;;;0.10;0.10;;;;;;;6.65;100.00;99768.66;4990540;28;20050;-77
2023/01/09 11:43:48;;;;;;;0.10;0.10;;;;;;;6.84;100.00;99760.06;5007334;28;20030;-77
2023/01/09 11:46:31;;;;;;;0.20;0.20;;;;;;;7.17;100.00;99783.19;4989483;28;20065;-77
2023/01/09 11:48:57;;;;;;;0.10;0.10;;;;;;;7.93;100.00;99789.53;5008037;28;20072;-77
2023/01/09 11:51:25;;;;;;;0.20;0.20;;;;;;;7.76;100.00;99786.44;5007264;28;20515;-76
2023/01/09 11:54:19;;;;;;;0.20;0.20;;;;;;;8.21;100.00;99800.56;4994337;28;20039;-77
2023/01/09 11:56:45;;;;;;;0.20;0.20;;;;;;;8.43;100.00;99762.16;5002077;28;20022;-77
2023/01/09 11:59:12;;;;;;;0.20;0.20;;;;;;;9.38;100.00;99788.75;5014528;28;20062;-75